Data for 07/04/2008

Time Sea-Level Adjusted Pressure Absolute Pressure Temperature Relative Humidity Dew Point   
(mb) (inHg) (mb) (inHg) (C) (F) (%) (C) (F)
00:05 1020 30.12 849 25.07 21.5 70.7 41 7.9 46.3
00:10 1020 30.12 850 25.1 21.2 70.2 42 7.9 46.2
00:15 1020 30.12 849 25.07 21.2 70.1 40 7.4 45.3
00:20 1019 30.09 848 25.04 21.2 70.1 42 7.9 46.3
00:25 1019 30.09 848 25.04 21 69.8 42 7.7 45.8
00:30 1019 30.09 848 25.04 21.2 70.1 40 7.3 45.2
00:35 1019 30.09 848 25.04 21.2 70.2 39 6.7 44.1
00:40 1020 30.12 849 25.07 21.5 70.7 38 6.7 44
00:45 1020 30.12 849 25.07 21.5 70.7 39 7.1 44.8
00:50 1020 30.12 849 25.07 21.3 70.4 37 6.4 43.5
00:55 1020 30.12 849 25.07 21.4 70.5 39 7 44.5
01:00 1020 30.12 849 25.07 21.3 70.3 39 6.7 44.1
01:05 1020 30.12 849 25.07 21.2 70.1 39 6.8 44.3
01:10 1020 30.12 849 25.07 21.1 69.9 39 6.8 44.2
01:15 1020 30.12 849 25.07 21 69.9 39 6.8 44.3
01:20 1020 30.12 849 25.07 21.1 69.9 40 7 44.5
01:25 1020 30.12 849 25.07 21 69.7 41 7.2 45
01:30 1020 30.12 849 25.07 20.8 69.4 42 7.4 45.4
01:35 1020 30.12 849 25.07 20.7 69.2 42 7.4 45.4
01:40 1019 30.09 849 25.07 20.7 69.2 42 7.6 45.6
01:45 1019 30.09 849 25.07 20.6 69.1 43 7.8 46.1
01:50 1019 30.09 848 25.04 20.4 68.7 45 8.1 46.6
01:55 1019 30.09 848 25.04 20.2 68.3 45 7.9 46.2
02:00 1019 30.09 848 25.04 20.1 68.2 45 7.8 46.1
02:05 1019 30.09 848 25.04 20.1 68.1 44 7.5 45.4
02:10 1019 30.09 848 25.04 20.2 68.3 45 7.9 46.2
02:15 1019 30.09 848 25.04 19.9 67.8 46 8.1 46.6
02:20 1019 30.09 848 25.04 19.6 67.3 48 8.4 47
02:25 1019 30.09 848 25.04 19.3 66.8 47 8 46.4
02:30 1018 30.06 847 25.01 19.5 67.1 45 7.5 45.6
02:35 1018 30.06 847 25.01 19.8 67.7 44 7.3 45.2
02:40 1018 30.06 847 25.01 20.1 68.2 43 7.3 45.1
02:45 1018 30.06 847 25.01 20.1 68.1 44 7.5 45.4
02:50 1018 30.06 847 25.01 20 68.1 43 7.2 45
02:55 1018 30.06 847 25.01 20 68 43 7.3 45.2
03:00 1018 30.06 847 25.01 19.8 67.6 44 7.4 45.4
03:05 1018 30.06 847 25.01 19.6 67.4 45 7.4 45.4
03:10 1018 30.06 847 25.01 19.6 67.3 45 7.3 45.2
03:15 1018 30.06 847 25.01 19.5 67.2 45 7.6 45.6
03:20 1018 30.06 847 25.01 19.4 67 44 7.1 44.8
03:25 1018 30.06 847 25.01 19.5 67.1 44 7.1 44.8
03:30 1018 30.06 847 25.01 19.5 67.2 44 7.2 45
03:35 1019 30.09 848 25.04 19.4 66.9 45 7.3 45.1
03:40 1020 30.12 849 25.07 19.3 66.7 48 8 46.4
03:45 1020 30.12 849 25.07 19.5 67.2 41 6.1 43
03:50 1020 30.12 849 25.07 20.2 68.4 43 7.3 45.1
03:55 1020 30.12 849 25.07 20 67.9 45 7.7 45.9
04:00 1020 30.12 849 25.07 19.6 67.3 47 8 46.4
04:05 1020 30.12 849 25.07 19.3 66.8 48 8.2 46.8
04:10 1019 30.09 849 25.07 19.1 66.3 48 8 46.5
04:15 1019 30.09 848 25.04 19.1 66.3 46 7.5 45.5
04:20 1020 30.12 849 25.07 19.3 66.8 46 7.6 45.7
04:25 1019 30.09 849 25.07 19.4 67 45 7.3 45.2
04:30 1019 30.09 848 25.04 19.6 67.3 45 7.5 45.5
04:35 1019 30.09 848 25.04 19.7 67.4 44 7.2 45
04:40 1019 30.09 848 25.04 19.8 67.6 46 7.9 46.3
04:45 1018 30.06 847 25.01 19.5 67.1 47 8 46.4
04:50 1018 30.06 847 25.01 19 66.1 48 7.7 45.9
04:55 1018 30.06 848 25.04 19 66.2 48 7.9 46.1
05:00 1018 30.06 847 25.01 18.9 66 47 7.6 45.7
05:05 1018 30.06 847 25.01 18.9 66 49 8 46.4
05:10 1018 30.06 847 25.01 18.7 65.6 49 7.9 46.2
05:15 1017 30.03 847 25.01 18.6 65.6 48 7.6 45.7
05:20 1017 30.03 846 24.98 18.9 66 46 7.1 44.9
05:25 1017 30.03 846 24.98 19.2 66.5 47 7.6 45.8
05:30 1017 30.03 846 24.98 18.8 65.8 48 7.8 46
05:35 1017 30.03 846 24.98 18.7 65.6 49 7.9 46.3
05:40 1017 30.03 846 24.98 18.4 65.2 51 8.3 47
05:45 1017 30.03 846 24.98 18.1 64.6 52 8.3 46.9
05:50 1017 30.03 846 24.98 18.1 64.6 50 7.8 46
05:55 1016 30 846 24.98 18.4 65.2 49 7.7 45.8
06:00 1016 30 846 24.98 18.6 65.5 48 7.5 45.5
06:05 1016 30 846 24.98 18.6 65.5 48 7.6 45.7
06:10 1016 30 846 24.98 18.5 65.3 49 7.6 45.8
06:15 1016 30 846 24.98 18.7 65.7 47 7.3 45.2
06:20 1016 30 846 24.98 18.9 65.9 46 7.2 44.9
06:25 1016 30 846 24.98 19.1 66.4 44 6.7 44
06:30 1016 30 846 24.98 19.6 67.3 42 6.5 43.8
06:35 1016 30 846 24.98 19.9 67.8 41 6.4 43.5
06:40 1016 30 846 24.98 20 68 40 6.2 43.2
06:45 1016 30 846 24.98 20.2 68.4 40 6.3 43.3
06:50 1016 30 846 24.98 20.3 68.5 39 5.9 42.6
06:55 1017 30.03 846 24.98 20.5 68.9 39 6.3 43.3
07:00 1017 30.03 846 24.98 20.5 68.9 39 6.4 43.5
07:05 1017 30.03 846 24.98 20.5 69 39 6.4 43.6
07:10 1017 30.03 846 24.98 20.7 69.2 39 6.5 43.7
07:15 1016 30 846 24.98 20.8 69.4 38 6.3 43.3
07:20 1017 30.03 846 24.98 21.1 69.9 37 6.1 43
07:25 1017 30.03 846 24.98 21.3 70.3 38 6.5 43.8
07:30 1016 30 846 24.98 21.4 70.5 37 6.4 43.5
07:35 1016 30 846 24.98 21.4 70.5 38 6.7 44.1
07:40 1016 30 845 24.95 21.6 70.8 38 6.7 44.1
07:45 1016 30 845 24.95 21.7 71 37 6.4 43.6
07:50 1016 30 845 24.95 21.9 71.4 37 6.8 44.2
07:55 1016 30 845 24.95 22 71.5 37 7 44.5
08:00 1016 30 845 24.95 22 71.6 38 7.3 45.1
08:05 1016 30 845 24.95 22.2 72 37 7.1 44.8
08:10 1016 30 845 24.95 22.3 72.1 39 7.7 45.9
08:15 1016 30 845 24.95 22.5 72.5 38 7.8 46
08:20 1016 30 845 24.95 22.7 72.8 39 8.1 46.5
08:25 1016 30 845 24.95 22.9 73.2 38 8.1 46.5
08:30 1016 30 845 24.95 23.1 73.5 36 7.5 45.4
08:35 1016 30 845 24.95 23.3 74 35 7.1 44.9
08:40 1016 30 845 24.95 23.6 74.4 34 7 44.6
08:45 1016 30 845 24.95 23.9 74.9 33 7 44.7
08:50 1016 30 845 24.95 23.8 74.8 36 7.9 46.2
08:55 1016 30 845 24.95 23.9 75 34 7.2 45
09:00 1016 30 845 24.95 24.5 76.1 33 7.4 45.3
09:05 1016 30 845 24.95 25.2 77.3 35 9 48.1
09:10 1016 30 845 24.95 24.1 75.4 39 9.7 49.4
09:15 1016 30 845 24.95 23.6 74.5 38 8.5 47.3
09:20 1016 30 845 24.95 23.2 73.8 39 8.9 48
09:25 1016 30 845 24.95 23 73.4 40 8.8 47.8
09:30 1015 29.97 845 24.95 22.9 73.3 41 9.1 48.4
09:35 1015 29.97 844 24.92 23 73.3 39 8.4 47
09:40 1015 29.97 844 24.92 23 73.4 38 8.3 47
09:45 1015 29.97 844 24.92 23 73.3 38 7.9 46.3
09:50 1015 29.97 844 24.92 23.2 73.8 35 7.3 45.1
09:55 1015 29.97 844 24.92 23.3 74 42 9.8 49.7
10:00 1016 30 845 24.95 22.2 71.9 48 10.7 51.2
10:05 1016 30 845 24.95 21.3 70.4 52 11.2 52.2
10:10 1016 30 845 24.95 21.6 70.9 36 6.1 42.9
10:15 1015 29.97 844 24.92 22.2 72 49 11.2 52.1
10:20 1015 29.97 844 24.92 21 69.8 53 11.2 52.1
10:25 1015 29.97 844 24.92 20.6 69 52 10.6 51.1
10:30 1015 29.97 844 24.92 20.6 69 53 10.8 51.5
10:35 1015 29.97 844 24.92 21.1 70 49 10.1 50.1
10:40 1015 29.97 844 24.92 21.5 70.7 51 11.1 51.9
10:45 1015 29.97 844 24.92 22.7 72.9 43 9.9 49.7
10:50 1015 29.97 844 24.92 23.5 74.3 42 10 50
10:55 1015 29.97 844 24.92 24 75.2 41 10 50
11:00 1015 29.97 844 24.92 24.8 76.7 37 9.3 48.7
11:05 1015 29.97 844 24.92 25.6 78.1 35 9.4 48.8
11:10 1015 29.97 844 24.92 25.9 78.7 36 10.1 50.2
11:15 1015 29.97 844 24.92 26.7 80 32 9 48.2
11:20 1014 29.94 844 24.92 27.2 80.9 29 8.1 46.6
11:25 1014 29.94 844 24.92 27.6 81.7 28 8 46.4
11:30 1014 29.94 844 24.92 28.1 82.6 27 7.6 45.7
11:35 1014 29.94 843 24.89 28.5 83.4 25 7.1 44.8
11:40 1014 29.94 843 24.89 28.6 83.5 25 7 44.6
11:45 1014 29.94 843 24.89 29 84.2 25 7.2 45
11:50 1014 29.94 843 24.89 29.3 84.7 24 6.8 44.2
11:55 1014 29.94 843 24.89 29.7 85.5 23 6.8 44.3
12:00 1014 29.94 843 24.89 30.1 86.2 23 7.2 45
12:05 1014 29.94 843 24.89 30.5 86.9 23 7.1 44.7
12:10 1014 29.94 843 24.89 30.9 87.5 22 6.9 44.4
12:15 1014 29.94 843 24.89 31.1 88.1 21 6.7 44.1
12:20 1014 29.94 843 24.89 31.3 88.3 20 5.8 42.4
12:25 1014 29.94 843 24.89 31.6 88.8 21 6.6 43.9
12:30 1013 29.91 843 24.89 31.8 89.2 20 6.7 44
12:35 1013 29.91 843 24.89 32.4 90.3 19 6 42.8
12:40 1013 29.91 843 24.89 32 89.5 19 5.6 42.1
12:45 1013 29.91 842 24.86 32.4 90.2 18 5.2 41.4
12:50 1013 29.91 842 24.86 32.5 90.6 18 5.4 41.8
12:55 1013 29.91 842 24.86 33.3 91.9 17 5.1 41.1
13:00 1013 29.91 842 24.86 34 93.1 20 8.5 47.2
13:05 1013 29.91 842 24.86 34.2 93.5 19 7.8 46.1
13:10 1013 29.91 842 24.86 34.5 94.1 18 7 44.7
13:15 1013 29.91 842 24.86 34.4 93.9 17 6.1 43.1
13:20 1013 29.91 842 24.86 34 93.1 17 5.7 42.2
13:25 1013 29.91 842 24.86 33.2 91.7 17 4.9 40.8
13:30 1013 29.91 842 24.86 33.6 92.5 16 4.9 40.8
13:35 1013 29.91 842 24.86 34 93.2 15 4.5 40.1
13:40 1013 29.91 842 24.86 34.8 94.6 13 3.1 37.6
13:45 1013 29.91 842 24.86 34 93.2 12 1.3 34.4
13:50 1012 29.88 842 24.86 34.6 94.3 12 2 35.6
13:55 1012 29.88 842 24.86 35.1 95.1 13 3.5 38.3
14:00 1012 29.88 842 24.86 34.2 93.6 18 7.3 45.2
14:05 1012 29.88 842 24.86 34.1 93.4 22 10.1 50.2
14:10 1012 29.88 841 24.83 33.5 92.2 24 10.3 50.6
14:15 1012 29.88 841 24.83 33.4 92.1 21 8.6 47.5
14:20 1012 29.88 841 24.83 33.5 92.3 19 7.1 44.7
14:25 1012 29.88 841 24.83 33.4 92.2 21 8.7 47.6
14:30 1012 29.88 841 24.83 32.6 90.7 28 12.1 53.8
14:35 1012 29.88 841 24.83 31.4 88.5 29 11.6 52.9
14:40 1012 29.88 842 24.86 30.7 87.3 31 12 53.6
14:45 1012 29.88 842 24.86 30.3 86.6 32 11.9 53.5
14:50 1012 29.88 842 24.86 30.2 86.4 32 12.1 53.8
14:55 1012 29.88 842 24.86 31.1 88 31 12.4 54.4
15:00 1012 29.88 842 24.86 32 89.6 27 10.8 51.4
15:05 1012 29.88 841 24.83 32.8 91.1 22 8.7 47.7
15:10 1012 29.88 841 24.83 33.1 91.6 17 5.2 41.3
15:15 1012 29.88 841 24.83 33.7 92.7 17 5.5 41.9
15:20 1012 29.88 841 24.83 33.2 91.8 15 3.6 38.4
15:25 1012 29.88 841 24.83 33.5 92.3 12 0.4 32.7
15:30 1012 29.88 841 24.83 33.3 92 12 0.2 32.4
15:35 1012 29.88 841 24.83 33.5 92.3 11 -0.4 31.3
15:40 1012 29.88 841 24.83 33.5 92.4 11 -1 30.1
15:45 1012 29.88 841 24.83 33.5 92.2 12 0.9 33.5
15:50 1012 29.88 841 24.83 33.7 92.7 11 -0.2 31.6
15:55 1011 29.85 841 24.83 33.6 92.5 11 -1.1 30.1
16:00 1011 29.85 841 24.83 33.6 92.4 12 0.3 32.6
16:05 1011 29.85 841 24.83 33.6 92.5 12 0.4 32.7
16:10 1011 29.85 841 24.83 33.5 92.3 11 -0.2 31.6
16:15 1011 29.85 841 24.83 33.5 92.3 11 -1.1 30
16:20 1011 29.85 841 24.83 33.2 91.8 12 -0.1 31.8
16:25 1011 29.85 841 24.83 32.8 91.1 12 0.2 32.3
16:30 1011 29.85 840 24.81 32.7 90.8 12 -0.4 31.3
16:35 1011 29.85 840 24.81 32.7 90.8 13 0.7 33.3
16:40 1011 29.85 840 24.81 32.9 91.3 13 1 33.8
16:45 1011 29.85 840 24.81 33.3 92 12 0.3 32.6
16:50 1011 29.85 840 24.81 33.3 91.9 11 -0.1 31.7
16:55 1011 29.85 840 24.81 33.3 91.9 12 1 33.8
17:00 1011 29.85 840 24.81 33 91.3 12 0.1 32.2
17:05 1011 29.85 840 24.81 32.4 90.4 13 0.6 33
17:10 1011 29.85 840 24.81 32.3 90.1 12 -0.5 31.1
17:15 1011 29.85 841 24.83 32.4 90.4 12 -0.2 31.7
17:20 1011 29.85 841 24.83 32.2 89.9 12 -0.6 30.9
17:25 1011 29.85 840 24.81 31.8 89.3 12 -0.5 31
17:30 1011 29.85 840 24.81 31.5 88.6 13 -0.1 31.8
17:35 1011 29.85 840 24.81 31.4 88.6 12 -1 30.2
17:40 1011 29.85 840 24.81 31.7 89 13 0 32.1
17:45 1011 29.85 840 24.81 31.4 88.5 13 0 32.1
17:50 1011 29.85 840 24.81 31.1 88 13 -0.2 31.7
17:55 1011 29.85 840 24.81 31.1 87.9 13 0.1 32.1
18:00 1011 29.85 840 24.81 31.2 88.2 12 -0.9 30.4
18:05 1011 29.85 840 24.81 31.3 88.3 13 0.3 32.6
18:10 1011 29.85 840 24.81 30.9 87.6 13 0.1 32.2
18:15 1011 29.85 840 24.81 30.9 87.5 13 -0.8 30.6
18:20 1011 29.85 840 24.81 31.2 88.1 13 -0.6 30.9
18:25 1011 29.85 840 24.81 31.1 88.1 13 -0.2 31.6
18:30 1011 29.85 840 24.81 31.3 88.4 11 -1.7 28.9
18:35 1011 29.85 840 24.81 31.6 88.9 13 -0.1 31.9
18:40 1011 29.85 840 24.81 31.3 88.4 12 -1 30.3
18:45 1011 29.85 840 24.81 31.6 88.8 12 -1.3 29.6
18:50 1011 29.85 840 24.81 31.7 89 13 0.7 33.3
18:55 1011 29.85 840 24.81 31.4 88.4 11 -1.8 28.7
19:00 1011 29.85 840 24.81 31.5 88.6 13 -0.3 31.4
19:05 1011 29.85 840 24.81 31.2 88.2 13 -0.2 31.7
19:10 1011 29.85 840 24.81 31.2 88.2 12 -0.7 30.7
19:15 1011 29.85 840 24.81 31.2 88.2 12 -0.7 30.7
19:20 1011 29.85 840 24.81 30.7 87.2 13 -1 30.2
19:25 1011 29.85 840 24.81 30.4 86.7 12 -1.7 28.9
19:30 1010 29.83 840 24.81 30.6 87.2 13 -1.1 30.1
19:35 1010 29.83 840 24.81 30.2 86.4 12 -1.6 29.2
19:40 1010 29.83 840 24.81 30.2 86.3 13 -1.3 29.7
19:45 1010 29.83 840 24.81 30.1 86.1 13 -0.6 30.8
19:50 1010 29.83 840 24.81 29.8 85.6 13 -1.1 30.1
19:55 1011 29.85 840 24.81 29.6 85.2 14 -0.5 31
20:00 1011 29.85 840 24.81 29 84.2 18 2.4 36.3
20:05 1011 29.85 840 24.81 27.8 82.1 21 4.1 39.5
20:10 1011 29.85 840 24.81 26.8 80.3 24 4.9 40.8
20:15 1011 29.85 840 24.81 26.2 79.1 26 5.4 41.7
20:20 1011 29.85 841 24.83 25.8 78.5 26 5.2 41.3
20:25 1011 29.85 841 24.83 25.6 78.1 26 5.1 41.2
20:30 1012 29.88 841 24.83 25.6 78.1 27 5.3 41.6
20:35 1012 29.88 841 24.83 25.5 77.9 28 5.8 42.5
20:40 1012 29.88 841 24.83 25.2 77.3 28 5.7 42.3
20:45 1012 29.88 841 24.83 24.9 76.8 29 5.8 42.4
20:50 1012 29.88 841 24.83 24.5 76.1 32 6.8 44.3
20:55 1012 29.88 841 24.83 23.5 74.3 33 6.4 43.5
21:00 1012 29.88 842 24.86 23.5 74.2 32 6 42.9
21:05 1012 29.88 842 24.86 23.8 74.8 31 5.7 42.3
21:10 1012 29.88 842 24.86 23.9 75 32 6.2 43.2
21:15 1012 29.88 842 24.86 23.7 74.6 31 5.9 42.6
21:20 1013 29.91 842 24.86 23.7 74.6 31 5.7 42.3
21:25 1013 29.91 842 24.86 23.7 74.6 31 5.7 42.3
21:30 1013 29.91 842 24.86 23.6 74.6 32 6 42.8
21:35 1013 29.91 842 24.86 23.4 74 32 6.1 43
21:40 1013 29.91 842 24.86 23.1 73.6 33 6 42.8
21:45 1013 29.91 842 24.86 22.9 73.2 34 6.3 43.3
21:50 1013 29.91 842 24.86 22.8 73 33 6 42.8
21:55 1013 29.91 843 24.89 22.8 73.1 33 6 42.7
22:00 1014 29.94 843 24.89 22.5 72.5 37 7.1 44.8
22:05 1014 29.94 843 24.89 21.4 70.4 40 7.5 45.5
22:10 1014 29.94 843 24.89 20.8 69.4 39 6.5 43.7
22:15 1014 29.94 843 24.89 21.1 70 39 6.7 44.1
22:20 1014 29.94 843 24.89 21 69.8 41 7.3 45.1
22:25 1014 29.94 843 24.89 20.5 68.9 41 7.1 44.7
22:30 1014 29.94 843 24.89 20.5 68.8 42 7.1 44.8
22:35 1014 29.94 843 24.89 20.4 68.7 41 6.8 44.3
22:40 1014 29.94 843 24.89 20.5 68.8 41 7 44.7
22:45 1014 29.94 843 24.89 20.3 68.6 42 7 44.6
22:50 1014 29.94 843 24.89 20.1 68.1 43 7.4 45.3
22:55 1014 29.94 843 24.89 19.8 67.6 44 7.3 45.1
23:00 1014 29.94 843 24.89 19.7 67.4 45 7.4 45.3
23:05 1014 29.94 844 24.92 19.6 67.3 45 7.4 45.4
23:10 1014 29.94 844 24.92 19.9 67.7 42 6.9 44.4
23:15 1014 29.94 844 24.92 19.8 67.7 44 7.3 45.1
23:20 1014 29.94 844 24.92 19.5 67.1 44 7 44.5
23:25 1014 29.94 844 24.92 19.3 66.8 44 7 44.6
23:30 1015 29.97 844 24.92 19.2 66.5 46 7.4 45.2
23:35 1015 29.97 844 24.92 18.8 65.8 47 7.4 45.3
23:40 1015 29.97 844 24.92 18.5 65.3 49 7.7 45.8
23:45 1015 29.97 844 24.92 18.1 64.5 50 7.6 45.7
23:50 1015 29.97 844 24.92 18 64.5 49 7.3 45.2
23:55 1015 29.97 844 24.92 18 64.5 50 7.6 45.8
24:00 1015 29.97 844 24.92 17.9 64.3 51 7.7 45.9